createdAt,value
2022-09-07T00:01:38.312Z,2.40
2022-09-07T00:05:45.454Z,2.35
2022-09-07T00:09:47.044Z,2.00
2022-09-07T00:13:49.983Z,2.28
2022-09-07T00:17:51.586Z,2.20
2022-09-07T00:21:53.250Z,2.65
2022-09-07T00:25:59.346Z,2.60
2022-09-07T00:30:01.071Z,2.53
2022-09-07T00:34:02.940Z,2.78
2022-09-07T00:38:04.552Z,2.67
2022-09-07T00:42:06.257Z,2.40
2022-09-07T00:46:32.394Z,2.88
2022-09-07T00:50:41.048Z,2.60
2022-09-07T00:54:51.068Z,2.85
2022-09-07T00:58:53.280Z,2.38
2022-09-07T01:02:58.506Z,2.65
2022-09-07T01:07:01.562Z,2.55
2022-09-07T01:11:03.545Z,2.95
2022-09-07T01:15:06.021Z,3.10
2022-09-07T01:19:30.122Z,3.97
2022-09-07T01:23:56.623Z,4.13
2022-09-07T01:28:17.039Z,3.80
2022-09-07T01:32:49.223Z,4.10
2022-09-07T01:36:56.875Z,3.75
2022-09-07T01:41:15.074Z,4.03
2022-09-07T01:45:19.906Z,3.92
2022-09-07T01:49:29.608Z,3.97
2022-09-07T01:53:59.167Z,4.65
2022-09-07T01:58:11.645Z,4.40
2022-09-07T02:02:18.009Z,5.78
2022-09-07T02:06:25.082Z,4.35
2022-09-07T02:10:41.012Z,4.80
2022-09-07T02:14:52.533Z,4.97
2022-09-07T02:19:04.286Z,8.32
2022-09-07T02:23:17.155Z,10.60
2022-09-07T02:27:24.783Z,11.18
2022-09-07T02:31:26.544Z,12.55
2022-09-07T02:35:28.503Z,12.60
2022-09-07T02:39:30.556Z,11.65
2022-09-07T02:43:33.122Z,13.40
2022-09-07T02:47:55.241Z,14.10
2022-09-07T02:52:14.973Z,14.20
2022-09-07T02:56:35.532Z,14.23
2022-09-07T03:00:54.286Z,12.73
2022-09-07T03:05:05.028Z,12.30
2022-09-07T03:09:13.786Z,14.95
2022-09-07T03:13:24.274Z,15.07
2022-09-07T03:17:25.856Z,11.48
2022-09-07T03:21:27.421Z,11.27
2022-09-07T03:25:29.065Z,8.95
2022-09-07T03:29:31.019Z,9.48
2022-09-07T03:33:32.583Z,10.20
2022-09-07T03:37:38.244Z,10.82
2022-09-07T03:41:39.971Z,10.73
2022-09-07T03:45:41.591Z,9.48
2022-09-07T03:49:43.501Z,8.27
2022-09-07T03:53:46.774Z,9.05
2022-09-07T03:57:48.383Z,8.70
2022-09-07T04:01:50.102Z,8.98
2022-09-07T04:05:51.792Z,10.07
2022-09-07T04:09:53.404Z,10.73
2022-09-07T04:13:54.977Z,11.40
2022-09-07T04:17:56.638Z,11.13
2022-09-07T04:21:58.301Z,8.70
2022-09-07T04:26:00.212Z,10.45
2022-09-07T04:30:01.911Z,10.23
2022-09-07T04:34:04.824Z,10.98
2022-09-07T04:42:08.514Z,12.50
2022-09-07T04:46:26.370Z,14.88
2022-09-07T04:50:28.017Z,16.42
2022-09-07T04:54:29.660Z,17.42
2022-09-07T04:58:31.686Z,18.40
2022-09-07T05:02:33.663Z,19.25
2022-09-07T05:06:35.364Z,19.65
2022-09-07T05:10:36.970Z,20.35
2022-09-07T05:14:38.553Z,21.90
2022-09-07T05:18:40.155Z,20.10
2022-09-07T05:22:41.938Z,21.10
2022-09-07T05:26:43.616Z,21.20
2022-09-07T05:35:06.965Z,21.50
2022-09-07T05:39:09.412Z,20.75
2022-09-07T05:43:11.130Z,21.33
2022-09-07T05:47:13.209Z,22.65
2022-09-07T05:51:14.998Z,21.93
2022-09-07T05:55:29.322Z,22.50
2022-09-07T05:59:31.419Z,24.63
2022-09-07T06:03:34.701Z,25.17
2022-09-07T06:07:36.381Z,25.70
2022-09-07T06:11:38.634Z,27.05
2022-09-07T06:15:40.240Z,27.25
2022-09-07T06:19:41.844Z,26.20
2022-09-07T06:23:44.649Z,26.50
2022-09-07T06:27:48.597Z,26.02
2022-09-07T06:36:15.074Z,21.88
2022-09-07T06:40:16.820Z,21.52
2022-09-07T06:44:18.473Z,20.52
2022-09-07T06:48:21.146Z,17.92
2022-09-07T06:52:22.918Z,15.57
2022-09-07T06:56:27.334Z,16.50
2022-09-07T07:00:29.041Z,14.73
2022-09-07T07:04:30.832Z,10.93
2022-09-07T07:08:33.166Z,9.85
2022-09-07T07:16:38.304Z,8.27
2022-09-07T07:20:41.924Z,8.55
2022-09-07T07:24:43.545Z,7.80
2022-09-07T07:29:03.997Z,7.30
2022-09-07T07:33:08.199Z,6.35
2022-09-07T07:37:09.840Z,5.75
2022-09-07T07:50:30.838Z,6.63
2022-09-07T07:54:39.277Z,5.70
2022-09-07T07:58:45.500Z,6.28
2022-09-07T08:02:47.082Z,5.53
2022-09-07T08:06:49.152Z,5.20
2022-09-07T08:10:51.211Z,5.35
2022-09-07T08:14:54.125Z,5.23
2022-09-07T08:18:55.763Z,4.90
2022-09-07T08:22:57.288Z,4.70
2022-09-07T08:26:59.240Z,4.55
2022-09-07T08:31:04.682Z,4.67
2022-09-07T08:35:07.361Z,5.53
2022-09-07T08:39:08.891Z,4.75
2022-09-07T08:43:13.198Z,4.80
2022-09-07T08:47:20.210Z,4.65
2022-09-07T08:51:33.997Z,4.00
2022-09-07T08:55:58.657Z,5.20
2022-09-07T09:00:20.606Z,4.15
2022-09-07T09:04:26.889Z,3.90
2022-09-07T09:08:58.489Z,4.28
2022-09-07T09:13:19.796Z,3.33
2022-09-07T09:17:44.645Z,3.05
2022-09-07T09:21:46.338Z,2.85
2022-09-07T09:25:54.028Z,3.33
2022-09-07T09:29:55.575Z,2.65
2022-09-07T09:34:05.830Z,2.93
2022-09-07T09:38:29.402Z,3.03
2022-09-07T09:42:34.467Z,2.95
2022-09-07T09:46:37.663Z,3.35
2022-09-07T09:55:33.122Z,2.90
2022-09-07T10:07:56.984Z,2.78
2022-09-07T10:12:08.574Z,2.63
2022-09-07T10:16:11.792Z,2.38
2022-09-07T10:20:16.123Z,3.30
2022-09-07T10:24:27.879Z,2.83
2022-09-07T10:33:10.344Z,2.20
2022-09-07T10:37:24.958Z,2.20
2022-09-07T10:41:43.346Z,2.17
2022-09-07T10:45:54.024Z,2.05
2022-09-07T10:50:30.072Z,2.28
2022-09-07T10:54:52.692Z,2.53
2022-09-07T10:59:15.537Z,1.80
2022-09-07T11:03:53.170Z,2.28
2022-09-07T11:08:21.605Z,2.50
2022-09-07T11:12:30.812Z,2.30
2022-09-07T11:16:55.216Z,2.20
2022-09-07T11:21:01.108Z,3.10
2022-09-07T11:25:35.365Z,2.55
2022-09-07T11:29:47.216Z,2.17
2022-09-07T11:38:28.459Z,2.58
2022-09-07T11:42:44.584Z,2.42
2022-09-07T11:47:14.151Z,2.40
2022-09-07T11:51:26.535Z,2.50
2022-09-07T11:55:34.287Z,2.50
2022-09-07T11:59:47.451Z,2.33
2022-09-07T12:04:24.822Z,2.55
2022-09-07T12:08:47.330Z,2.25
2022-09-07T12:13:10.788Z,2.50
2022-09-07T12:17:40.268Z,2.47
2022-09-07T12:21:53.879Z,2.55
2022-09-07T12:26:33.642Z,2.47
2022-09-07T12:30:35.253Z,2.30
2022-09-07T12:39:19.996Z,2.55
2022-09-07T12:43:21.533Z,2.30
2022-09-07T12:56:17.993Z,2.08
2022-09-07T13:00:36.084Z,2.20
2022-09-07T13:05:13.180Z,2.30
2022-09-07T13:09:34.623Z,2.10
2022-09-07T13:22:00.041Z,2.08
2022-09-07T13:26:04.560Z,2.33
2022-09-07T13:30:15.129Z,2.75
2022-09-07T13:34:35.053Z,1.90
2022-09-07T13:38:36.908Z,1.38
2022-09-07T13:42:38.914Z,1.40
2022-09-07T13:47:00.090Z,1.70
2022-09-07T13:51:25.057Z,1.55
2022-09-07T13:55:38.830Z,1.40
2022-09-07T13:59:42.625Z,1.45
2022-09-07T14:04:07.627Z,1.40
2022-09-07T14:08:26.635Z,1.10
2022-09-07T14:12:30.702Z,1.45
2022-09-07T14:16:33.539Z,1.05
2022-09-07T14:20:42.011Z,1.23
2022-09-07T14:24:49.371Z,1.00
2022-09-07T14:28:53.472Z,1.08
2022-09-07T14:33:03.282Z,1.33
2022-09-07T14:37:12.640Z,1.30
2022-09-07T14:41:17.715Z,1.30
2022-09-07T14:45:22.303Z,1.50
2022-09-07T14:49:24.350Z,1.55
2022-09-07T14:57:42.749Z,1.60
2022-09-07T15:01:44.640Z,1.23
2022-09-07T15:05:48.263Z,1.38
2022-09-07T15:09:49.854Z,1.38
2022-09-07T15:13:57.457Z,1.60
2022-09-07T15:18:08.204Z,1.20
2022-09-07T15:22:11.619Z,1.33
2022-09-07T15:30:37.581Z,1.20
2022-09-07T15:34:39.229Z,1.40
2022-09-07T15:43:13.665Z,1.52
2022-09-07T15:56:03.501Z,1.38
2022-09-07T16:00:06.578Z,1.80
2022-09-07T16:04:15.623Z,1.30
2022-09-07T16:08:25.848Z,1.33
2022-09-07T16:21:12.828Z,1.30
2022-09-07T16:25:14.596Z,1.30
2022-09-07T16:29:17.674Z,1.40
2022-09-07T16:33:23.872Z,1.27
2022-09-07T16:37:30.619Z,1.60
2022-09-07T16:41:33.396Z,1.43
2022-09-07T16:49:56.497Z,1.40
2022-09-07T16:53:58.976Z,1.60
2022-09-07T17:02:22.040Z,1.80
2022-09-07T17:06:26.266Z,1.67
2022-09-07T17:10:28.750Z,1.63
2022-09-07T17:22:54.995Z,1.77
2022-09-07T17:26:59.720Z,1.40
2022-09-07T17:32:23.743Z,1.60
2022-09-07T17:35:37.881Z,1.50
2022-09-07T17:39:39.478Z,1.60
2022-09-07T17:43:45.407Z,1.42
2022-09-07T17:47:49.611Z,1.60
2022-09-07T17:51:51.140Z,1.83
2022-09-07T17:55:52.681Z,1.88
2022-09-07T18:00:11.131Z,1.85
2022-09-07T18:04:14.501Z,1.25
2022-09-07T18:12:17.680Z,1.63
2022-09-07T18:16:22.708Z,1.30
2022-09-07T18:20:25.907Z,1.80
2022-09-07T18:24:27.844Z,1.25
2022-09-07T18:32:55.472Z,1.55
2022-09-07T18:36:58.249Z,1.50
2022-09-07T18:41:11.831Z,1.63
2022-09-07T18:45:29.087Z,1.55
2022-09-07T18:49:30.742Z,1.55
2022-09-07T18:53:33.247Z,2.10
2022-09-07T18:57:36.325Z,1.58
2022-09-07T19:01:38.517Z,1.83
2022-09-07T19:05:55.928Z,2.10
2022-09-07T19:09:58.182Z,1.88
2022-09-07T19:14:04.453Z,1.80
2022-09-07T19:18:07.880Z,1.88
2022-09-07T19:22:09.413Z,1.85
2022-09-07T19:26:11.043Z,1.90
2022-09-07T19:30:12.778Z,1.90
2022-09-07T19:34:14.500Z,1.90
2022-09-07T19:38:16.158Z,2.28
2022-09-07T19:42:17.735Z,2.20
2022-09-07T19:46:24.635Z,2.20
2022-09-07T19:50:31.074Z,1.90
2022-09-07T19:54:33.958Z,2.28
2022-09-07T20:02:37.970Z,2.43
2022-09-07T20:06:39.864Z,2.17
2022-09-07T20:10:41.854Z,2.10
2022-09-07T20:14:43.504Z,2.30
2022-09-07T20:18:45.948Z,2.33
2022-09-07T20:22:47.983Z,3.22
2022-09-07T20:26:49.641Z,2.00
2022-09-07T20:30:51.266Z,2.20
2022-09-07T20:34:53.147Z,3.03
2022-09-07T20:38:56.201Z,1.98
2022-09-07T20:42:58.812Z,2.20
2022-09-07T20:47:00.936Z,3.42
2022-09-07T20:51:09.303Z,2.95
2022-09-07T20:55:10.899Z,2.13
2022-09-07T20:59:12.532Z,2.05
2022-09-07T21:03:14.731Z,2.05
2022-09-07T21:07:16.318Z,1.92
2022-09-07T21:11:29.530Z,2.13
2022-09-07T21:15:31.162Z,2.20
2022-09-07T21:19:32.788Z,2.20
2022-09-07T21:23:36.424Z,3.10
2022-09-07T21:27:38.765Z,2.03
2022-09-07T21:31:40.552Z,2.22
2022-09-07T21:35:42.163Z,2.63
2022-09-07T21:39:43.911Z,2.08
2022-09-07T21:43:45.644Z,2.15
2022-09-07T21:47:47.263Z,2.17
2022-09-07T21:51:48.970Z,2.70
2022-09-07T21:55:58.127Z,2.15
2022-09-07T21:59:59.668Z,2.15
2022-09-07T22:04:03.966Z,2.72
2022-09-07T22:08:05.560Z,2.42
2022-09-07T22:12:07.648Z,2.60
2022-09-07T22:16:09.994Z,1.97
2022-09-07T22:20:12.068Z,2.13
2022-09-07T22:24:15.254Z,2.00
2022-09-07T22:28:16.884Z,2.17
2022-09-07T22:32:18.501Z,2.10
2022-09-07T22:36:23.198Z,2.33
2022-09-07T22:40:24.732Z,2.08
2022-09-07T22:44:27.588Z,2.17
2022-09-07T22:52:30.817Z,2.10
2022-09-07T22:56:33.779Z,2.22
2022-09-07T23:00:36.452Z,2.10
2022-09-07T23:04:38.095Z,2.00
2022-09-07T23:08:39.934Z,2.20
2022-09-07T23:12:41.456Z,2.20
2022-09-07T23:16:43.816Z,2.22
2022-09-07T23:20:46.363Z,1.90
2022-09-07T23:24:47.891Z,2.50
2022-09-07T23:28:54.215Z,2.63
2022-09-07T23:32:55.801Z,3.72
2022-09-07T23:36:57.361Z,4.30
2022-09-07T23:41:00.035Z,4.72
2022-09-07T23:45:01.582Z,4.13
2022-09-07T23:49:03.321Z,5.32
2022-09-07T23:53:04.987Z,4.70
2022-09-07T23:57:06.538Z,4.72
